sensor_id;sensor_type;location;lat;lon;timestamp;P1;durP1;ratioP1;P2;durP2;ratioP2
24739;SDS011;45234;48.148;17.128;2022-11-20T00:00:52;35.67;;;19.88;;
24739;SDS011;45234;48.148;17.128;2022-11-20T00:03:19;39.95;;;20.42;;
24739;SDS011;45234;48.148;17.128;2022-11-20T00:05:46;40.58;;;22.10;;
24739;SDS011;45234;48.148;17.128;2022-11-20T00:08:13;41.47;;;21.52;;
24739;SDS011;45234;48.148;17.128;2022-11-20T00:10:40;34.58;;;19.88;;
24739;SDS011;45234;48.148;17.128;2022-11-20T00:13:14;37.95;;;20.27;;
24739;SDS011;45234;48.148;17.128;2022-11-20T00:15:41;34.92;;;19.23;;
24739;SDS011;45234;48.148;17.128;2022-11-20T00:18:08;41.33;;;21.30;;
24739;SDS011;45234;48.148;17.128;2022-11-20T00:20:35;39.13;;;21.02;;
24739;SDS011;45234;48.148;17.128;2022-11-20T00:23:01;33.10;;;20.05;;
24739;SDS011;45234;48.148;17.128;2022-11-20T00:25:29;41.05;;;22.13;;
24739;SDS011;45234;48.148;17.128;2022-11-20T00:27:57;59.05;;;28.10;;
24739;SDS011;45234;48.148;17.128;2022-11-20T00:30:23;62.47;;;29.83;;
24739;SDS011;45234;48.148;17.128;2022-11-20T00:32:50;57.53;;;27.20;;
24739;SDS011;45234;48.148;17.128;2022-11-20T00:35:17;61.90;;;29.70;;
24739;SDS011;45234;48.148;17.128;2022-11-20T00:37:44;62.10;;;29.13;;
24739;SDS011;45234;48.148;17.128;2022-11-20T00:40:11;61.00;;;29.38;;
24739;SDS011;45234;48.148;17.128;2022-11-20T00:42:38;64.38;;;30.52;;
24739;SDS011;45234;48.148;17.128;2022-11-20T00:45:05;65.63;;;31.58;;
24739;SDS011;45234;48.148;17.128;2022-11-20T00:47:32;67.28;;;31.00;;
24739;SDS011;45234;48.148;17.128;2022-11-20T00:50:00;67.30;;;31.92;;
24739;SDS011;45234;48.148;17.128;2022-11-20T00:52:27;57.10;;;29.45;;
24739;SDS011;45234;48.148;17.128;2022-11-20T00:54:54;61.15;;;28.40;;
24739;SDS011;45234;48.148;17.128;2022-11-20T00:57:21;56.80;;;28.15;;
24739;SDS011;45234;48.148;17.128;2022-11-20T00:59:48;56.92;;;28.92;;
24739;SDS011;45234;48.148;17.128;2022-11-20T01:02:14;48.00;;;24.02;;
24739;SDS011;45234;48.148;17.128;2022-11-20T01:04:42;48.17;;;25.02;;
24739;SDS011;45234;48.148;17.128;2022-11-20T01:07:09;44.13;;;23.10;;
24739;SDS011;45234;48.148;17.128;2022-11-20T01:09:35;48.03;;;23.05;;
24739;SDS011;45234;48.148;17.128;2022-11-20T01:12:02;44.30;;;21.20;;
24739;SDS011;45234;48.148;17.128;2022-11-20T01:14:29;40.13;;;20.92;;
24739;SDS011;45234;48.148;17.128;2022-11-20T01:16:56;36.92;;;20.35;;
24739;SDS011;45234;48.148;17.128;2022-11-20T01:19:23;41.03;;;20.80;;
24739;SDS011;45234;48.148;17.128;2022-11-20T01:21:51;36.38;;;20.17;;
24739;SDS011;45234;48.148;17.128;2022-11-20T01:24:19;38.15;;;20.67;;
24739;SDS011;45234;48.148;17.128;2022-11-20T01:26:48;38.45;;;20.60;;
24739;SDS011;45234;48.148;17.128;2022-11-20T01:29:20;36.78;;;20.52;;
24739;SDS011;45234;48.148;17.128;2022-11-20T01:34:18;35.45;;;19.58;;
24739;SDS011;45234;48.148;17.128;2022-11-20T01:36:46;38.30;;;20.80;;
24739;SDS011;45234;48.148;17.128;2022-11-20T01:39:15;37.28;;;20.02;;
24739;SDS011;45234;48.148;17.128;2022-11-20T01:41:47;37.03;;;20.83;;
24739;SDS011;45234;48.148;17.128;2022-11-20T01:44:52;37.72;;;20.73;;
24739;SDS011;45234;48.148;17.128;2022-11-20T01:47:37;39.55;;;21.40;;
24739;SDS011;45234;48.148;17.128;2022-11-20T01:50:15;37.35;;;20.50;;
24739;SDS011;45234;48.148;17.128;2022-11-20T01:52:52;34.38;;;18.77;;
24739;SDS011;45234;48.148;17.128;2022-11-20T01:55:23;36.85;;;19.27;;
24739;SDS011;45234;48.148;17.128;2022-11-20T01:57:55;39.30;;;20.85;;
24739;SDS011;45234;48.148;17.128;2022-11-20T02:00:22;41.80;;;21.50;;
24739;SDS011;45234;48.148;17.128;2022-11-20T02:02:51;41.40;;;21.90;;
24739;SDS011;45234;48.148;17.128;2022-11-20T02:05:28;41.28;;;22.42;;
24739;SDS011;45234;48.148;17.128;2022-11-20T02:07:58;44.60;;;23.48;;
24739;SDS011;45234;48.148;17.128;2022-11-20T02:10:26;49.28;;;24.13;;
24739;SDS011;45234;48.148;17.128;2022-11-20T02:12:54;50.42;;;26.52;;
24739;SDS011;45234;48.148;17.128;2022-11-20T02:15:40;53.33;;;26.88;;
24739;SDS011;45234;48.148;17.128;2022-11-20T02:18:07;53.85;;;27.23;;
24739;SDS011;45234;48.148;17.128;2022-11-20T02:20:37;56.45;;;28.30;;
24739;SDS011;45234;48.148;17.128;2022-11-20T02:26:21;49.63;;;25.60;;
24739;SDS011;45234;48.148;17.128;2022-11-20T02:28:51;55.13;;;27.40;;
24739;SDS011;45234;48.148;17.128;2022-11-20T02:31:17;53.22;;;27.48;;
24739;SDS011;45234;48.148;17.128;2022-11-20T02:33:44;52.92;;;27.33;;
24739;SDS011;45234;48.148;17.128;2022-11-20T02:36:11;55.47;;;26.70;;
24739;SDS011;45234;48.148;17.128;2022-11-20T02:38:42;53.95;;;27.00;;
24739;SDS011;45234;48.148;17.128;2022-11-20T02:41:09;56.08;;;28.48;;
24739;SDS011;45234;48.148;17.128;2022-11-20T02:43:36;53.05;;;27.48;;
24739;SDS011;45234;48.148;17.128;2022-11-20T02:46:03;50.33;;;25.67;;
24739;SDS011;45234;48.148;17.128;2022-11-20T02:48:32;52.63;;;25.98;;
24739;SDS011;45234;48.148;17.128;2022-11-20T02:51:01;50.65;;;27.38;;
24739;SDS011;45234;48.148;17.128;2022-11-20T02:53:28;55.85;;;27.25;;
24739;SDS011;45234;48.148;17.128;2022-11-20T02:55:55;51.25;;;25.27;;
24739;SDS011;45234;48.148;17.128;2022-11-20T02:58:21;44.03;;;24.50;;
24739;SDS011;45234;48.148;17.128;2022-11-20T03:00:48;49.30;;;25.67;;
24739;SDS011;45234;48.148;17.128;2022-11-20T03:03:15;47.45;;;24.63;;
24739;SDS011;45234;48.148;17.128;2022-11-20T03:05:42;43.83;;;23.20;;
24739;SDS011;45234;48.148;17.128;2022-11-20T03:08:09;47.78;;;24.23;;
24739;SDS011;45234;48.148;17.128;2022-11-20T03:10:36;46.63;;;24.15;;
24739;SDS011;45234;48.148;17.128;2022-11-20T03:13:03;48.33;;;25.65;;
24739;SDS011;45234;48.148;17.128;2022-11-20T03:15:29;45.17;;;24.23;;
24739;SDS011;45234;48.148;17.128;2022-11-20T03:17:56;47.00;;;23.20;;
24739;SDS011;45234;48.148;17.128;2022-11-20T03:20:23;43.85;;;23.77;;
24739;SDS011;45234;48.148;17.128;2022-11-20T03:22:50;45.10;;;23.02;;
24739;SDS011;45234;48.148;17.128;2022-11-20T03:25:19;41.50;;;23.83;;
24739;SDS011;45234;48.148;17.128;2022-11-20T03:27:45;48.45;;;25.38;;
24739;SDS011;45234;48.148;17.128;2022-11-20T03:30:13;47.10;;;25.20;;
24739;SDS011;45234;48.148;17.128;2022-11-20T03:32:40;47.00;;;25.27;;
24739;SDS011;45234;48.148;17.128;2022-11-20T03:35:07;46.42;;;24.35;;
24739;SDS011;45234;48.148;17.128;2022-11-20T03:37:35;50.25;;;25.25;;
24739;SDS011;45234;48.148;17.128;2022-11-20T03:40:02;47.75;;;24.45;;
24739;SDS011;45234;48.148;17.128;2022-11-20T03:42:29;48.15;;;25.80;;
24739;SDS011;45234;48.148;17.128;2022-11-20T03:45:13;50.70;;;26.08;;
24739;SDS011;45234;48.148;17.128;2022-11-20T03:47:43;56.53;;;28.45;;
24739;SDS011;45234;48.148;17.128;2022-11-20T03:50:11;61.55;;;31.35;;
24739;SDS011;45234;48.148;17.128;2022-11-20T03:52:39;62.67;;;30.90;;
24739;SDS011;45234;48.148;17.128;2022-11-20T03:55:06;60.58;;;29.85;;
24739;SDS011;45234;48.148;17.128;2022-11-20T03:57:34;56.78;;;27.95;;
24739;SDS011;45234;48.148;17.128;2022-11-20T04:00:01;56.13;;;28.48;;
24739;SDS011;45234;48.148;17.128;2022-11-20T04:02:29;53.83;;;27.98;;
24739;SDS011;45234;48.148;17.128;2022-11-20T04:04:55;52.95;;;27.42;;
24739;SDS011;45234;48.148;17.128;2022-11-20T04:07:22;58.10;;;30.90;;
24739;SDS011;45234;48.148;17.128;2022-11-20T04:09:49;53.55;;;29.52;;
24739;SDS011;45234;48.148;17.128;2022-11-20T04:12:16;55.05;;;28.40;;
24739;SDS011;45234;48.148;17.128;2022-11-20T04:14:43;56.15;;;29.30;;
24739;SDS011;45234;48.148;17.128;2022-11-20T04:17:09;67.13;;;33.03;;
24739;SDS011;45234;48.148;17.128;2022-11-20T04:19:36;66.95;;;31.50;;
24739;SDS011;45234;48.148;17.128;2022-11-20T04:22:03;69.10;;;32.15;;
24739;SDS011;45234;48.148;17.128;2022-11-20T04:24:30;68.43;;;33.90;;
24739;SDS011;45234;48.148;17.128;2022-11-20T04:26:57;65.75;;;34.33;;
24739;SDS011;45234;48.148;17.128;2022-11-20T04:29:23;66.72;;;33.08;;
24739;SDS011;45234;48.148;17.128;2022-11-20T04:31:50;69.00;;;32.83;;
24739;SDS011;45234;48.148;17.128;2022-11-20T04:34:17;65.90;;;33.47;;
24739;SDS011;45234;48.148;17.128;2022-11-20T04:36:44;65.70;;;31.70;;
24739;SDS011;45234;48.148;17.128;2022-11-20T04:39:11;62.47;;;31.33;;
24739;SDS011;45234;48.148;17.128;2022-11-20T04:41:40;61.53;;;30.88;;
24739;SDS011;45234;48.148;17.128;2022-11-20T04:44:10;55.13;;;28.35;;
24739;SDS011;45234;48.148;17.128;2022-11-20T04:46:38;55.22;;;29.27;;
24739;SDS011;45234;48.148;17.128;2022-11-20T04:49:07;53.85;;;28.35;;
24739;SDS011;45234;48.148;17.128;2022-11-20T04:51:36;55.40;;;27.33;;
24739;SDS011;45234;48.148;17.128;2022-11-20T04:54:03;58.42;;;27.73;;
24739;SDS011;45234;48.148;17.128;2022-11-20T04:56:30;51.83;;;26.85;;
24739;SDS011;45234;48.148;17.128;2022-11-20T04:58:59;47.47;;;25.85;;
24739;SDS011;45234;48.148;17.128;2022-11-20T05:01:27;56.25;;;27.10;;
24739;SDS011;45234;48.148;17.128;2022-11-20T05:03:54;46.50;;;25.33;;
24739;SDS011;45234;48.148;17.128;2022-11-20T05:06:21;50.13;;;25.73;;
24739;SDS011;45234;48.148;17.128;2022-11-20T05:08:49;53.13;;;27.17;;
24739;SDS011;45234;48.148;17.128;2022-11-20T05:11:17;52.17;;;26.45;;
24739;SDS011;45234;48.148;17.128;2022-11-20T05:13:46;58.40;;;27.40;;
24739;SDS011;45234;48.148;17.128;2022-11-20T05:16:14;56.28;;;26.10;;
24739;SDS011;45234;48.148;17.128;2022-11-20T05:18:46;58.88;;;28.67;;
24739;SDS011;45234;48.148;17.128;2022-11-20T05:21:14;45.75;;;25.15;;
24739;SDS011;45234;48.148;17.128;2022-11-20T05:23:41;55.45;;;27.48;;
24739;SDS011;45234;48.148;17.128;2022-11-20T05:26:13;54.17;;;27.17;;
24739;SDS011;45234;48.148;17.128;2022-11-20T05:28:45;51.83;;;27.85;;
24739;SDS011;45234;48.148;17.128;2022-11-20T05:31:14;52.83;;;27.23;;
24739;SDS011;45234;48.148;17.128;2022-11-20T05:33:48;59.05;;;28.70;;
24739;SDS011;45234;48.148;17.128;2022-11-20T05:36:15;50.67;;;27.48;;
24739;SDS011;45234;48.148;17.128;2022-11-20T05:38:42;52.72;;;27.58;;
24739;SDS011;45234;48.148;17.128;2022-11-20T05:41:13;49.60;;;26.00;;
24739;SDS011;45234;48.148;17.128;2022-11-20T05:43:43;53.22;;;26.70;;
24739;SDS011;45234;48.148;17.128;2022-11-20T05:46:11;53.17;;;26.90;;
24739;SDS011;45234;48.148;17.128;2022-11-20T05:48:42;49.47;;;26.00;;
24739;SDS011;45234;48.148;17.128;2022-11-20T05:51:10;49.35;;;25.65;;
24739;SDS011;45234;48.148;17.128;2022-11-20T05:53:40;55.83;;;26.60;;
24739;SDS011;45234;48.148;17.128;2022-11-20T05:56:13;52.10;;;26.40;;
24739;SDS011;45234;48.148;17.128;2022-11-20T05:58:42;54.88;;;27.48;;
24739;SDS011;45234;48.148;17.128;2022-11-20T06:01:17;51.72;;;27.80;;
24739;SDS011;45234;48.148;17.128;2022-11-20T06:03:49;54.13;;;26.75;;
24739;SDS011;45234;48.148;17.128;2022-11-20T06:06:17;51.92;;;26.58;;
24739;SDS011;45234;48.148;17.128;2022-11-20T06:08:45;56.78;;;26.70;;
24739;SDS011;45234;48.148;17.128;2022-11-20T06:11:13;54.53;;;27.20;;
24739;SDS011;45234;48.148;17.128;2022-11-20T06:13:43;52.33;;;27.77;;
24739;SDS011;45234;48.148;17.128;2022-11-20T06:16:10;55.30;;;27.00;;
24739;SDS011;45234;48.148;17.128;2022-11-20T06:18:38;51.45;;;26.48;;
24739;SDS011;45234;48.148;17.128;2022-11-20T06:21:07;53.33;;;26.95;;
24739;SDS011;45234;48.148;17.128;2022-11-20T06:23:38;54.05;;;27.33;;
24739;SDS011;45234;48.148;17.128;2022-11-20T06:26:06;52.58;;;26.83;;
24739;SDS011;45234;48.148;17.128;2022-11-20T06:28:34;55.33;;;26.98;;
24739;SDS011;45234;48.148;17.128;2022-11-20T06:31:02;55.13;;;25.40;;
24739;SDS011;45234;48.148;17.128;2022-11-20T06:33:29;57.83;;;26.92;;
24739;SDS011;45234;48.148;17.128;2022-11-20T06:35:57;54.83;;;26.33;;
24739;SDS011;45234;48.148;17.128;2022-11-20T06:38:32;52.80;;;26.77;;
24739;SDS011;45234;48.148;17.128;2022-11-20T06:40:59;50.75;;;26.77;;
24739;SDS011;45234;48.148;17.128;2022-11-20T06:43:28;50.92;;;25.98;;
24739;SDS011;45234;48.148;17.128;2022-11-20T06:45:55;52.88;;;27.33;;
24739;SDS011;45234;48.148;17.128;2022-11-20T06:48:25;54.40;;;27.50;;
24739;SDS011;45234;48.148;17.128;2022-11-20T06:50:53;54.35;;;27.35;;
24739;SDS011;45234;48.148;17.128;2022-11-20T06:53:21;53.03;;;27.05;;
24739;SDS011;45234;48.148;17.128;2022-11-20T06:55:48;52.50;;;26.83;;
24739;SDS011;45234;48.148;17.128;2022-11-20T06:58:17;56.75;;;27.55;;
24739;SDS011;45234;48.148;17.128;2022-11-20T07:00:44;50.75;;;27.73;;
24739;SDS011;45234;48.148;17.128;2022-11-20T07:03:12;51.90;;;26.52;;
24739;SDS011;45234;48.148;17.128;2022-11-20T07:05:41;54.00;;;27.73;;
24739;SDS011;45234;48.148;17.128;2022-11-20T07:08:08;55.42;;;28.42;;
24739;SDS011;45234;48.148;17.128;2022-11-20T07:10:35;49.15;;;26.10;;
24739;SDS011;45234;48.148;17.128;2022-11-20T07:13:01;53.58;;;27.30;;
24739;SDS011;45234;48.148;17.128;2022-11-20T07:15:28;52.85;;;27.98;;
24739;SDS011;45234;48.148;17.128;2022-11-20T07:17:58;50.33;;;26.25;;
24739;SDS011;45234;48.148;17.128;2022-11-20T07:20:26;48.63;;;25.92;;
24739;SDS011;45234;48.148;17.128;2022-11-20T07:22:54;52.53;;;26.20;;
24739;SDS011;45234;48.148;17.128;2022-11-20T07:25:24;61.72;;;28.20;;
24739;SDS011;45234;48.148;17.128;2022-11-20T07:27:52;52.30;;;27.70;;
24739;SDS011;45234;48.148;17.128;2022-11-20T07:30:22;56.60;;;28.67;;
24739;SDS011;45234;48.148;17.128;2022-11-20T07:32:52;55.40;;;27.75;;
24739;SDS011;45234;48.148;17.128;2022-11-20T07:35:21;58.45;;;29.08;;
24739;SDS011;45234;48.148;17.128;2022-11-20T07:37:49;56.22;;;27.10;;
24739;SDS011;45234;48.148;17.128;2022-11-20T07:40:16;61.15;;;29.55;;
24739;SDS011;45234;48.148;17.128;2022-11-20T07:42:51;60.03;;;29.52;;
24739;SDS011;45234;48.148;17.128;2022-11-20T07:45:20;52.03;;;27.38;;
24739;SDS011;45234;48.148;17.128;2022-11-20T07:47:49;55.72;;;27.40;;
24739;SDS011;45234;48.148;17.128;2022-11-20T07:50:17;49.58;;;26.88;;
24739;SDS011;45234;48.148;17.128;2022-11-20T07:52:45;59.40;;;28.98;;
24739;SDS011;45234;48.148;17.128;2022-11-20T07:55:12;51.38;;;26.45;;
24739;SDS011;45234;48.148;17.128;2022-11-20T07:57:39;48.50;;;26.17;;
24739;SDS011;45234;48.148;17.128;2022-11-20T08:00:07;48.35;;;25.38;;
24739;SDS011;45234;48.148;17.128;2022-11-20T08:02:38;47.05;;;25.33;;
24739;SDS011;45234;48.148;17.128;2022-11-20T08:05:06;46.50;;;24.65;;
24739;SDS011;45234;48.148;17.128;2022-11-20T08:07:37;46.72;;;24.58;;
24739;SDS011;45234;48.148;17.128;2022-11-20T08:10:05;46.53;;;24.58;;
24739;SDS011;45234;48.148;17.128;2022-11-20T08:12:33;50.65;;;26.67;;
24739;SDS011;45234;48.148;17.128;2022-11-20T08:15:18;52.20;;;26.23;;
24739;SDS011;45234;48.148;17.128;2022-11-20T08:17:45;48.63;;;26.00;;
24739;SDS011;45234;48.148;17.128;2022-11-20T08:20:34;46.45;;;24.83;;
24739;SDS011;45234;48.148;17.128;2022-11-20T08:23:01;47.00;;;26.20;;
24739;SDS011;45234;48.148;17.128;2022-11-20T08:25:31;50.70;;;27.73;;
24739;SDS011;45234;48.148;17.128;2022-11-20T08:28:00;49.50;;;25.83;;
24739;SDS011;45234;48.148;17.128;2022-11-20T08:30:44;48.90;;;26.63;;
24739;SDS011;45234;48.148;17.128;2022-11-20T08:33:11;47.60;;;27.15;;
24739;SDS011;45234;48.148;17.128;2022-11-20T08:35:38;49.95;;;27.58;;
24739;SDS011;45234;48.148;17.128;2022-11-20T08:38:06;49.35;;;25.55;;
24739;SDS011;45234;48.148;17.128;2022-11-20T08:40:34;46.00;;;24.77;;
24739;SDS011;45234;48.148;17.128;2022-11-20T08:43:01;43.92;;;23.90;;
24739;SDS011;45234;48.148;17.128;2022-11-20T08:45:28;41.88;;;24.27;;
24739;SDS011;45234;48.148;17.128;2022-11-20T08:48:00;40.88;;;22.98;;
24739;SDS011;45234;48.148;17.128;2022-11-20T08:50:28;45.65;;;25.27;;
24739;SDS011;45234;48.148;17.128;2022-11-20T08:53:05;44.22;;;24.23;;
24739;SDS011;45234;48.148;17.128;2022-11-20T08:55:32;45.45;;;22.77;;
24739;SDS011;45234;48.148;17.128;2022-11-20T08:58:04;45.38;;;24.73;;
24739;SDS011;45234;48.148;17.128;2022-11-20T09:00:32;44.92;;;25.20;;
24739;SDS011;45234;48.148;17.128;2022-11-20T09:03:00;51.97;;;26.42;;
24739;SDS011;45234;48.148;17.128;2022-11-20T09:05:28;46.78;;;26.35;;
24739;SDS011;45234;48.148;17.128;2022-11-20T09:07:59;51.50;;;27.65;;
24739;SDS011;45234;48.148;17.128;2022-11-20T09:10:26;49.53;;;26.70;;
24739;SDS011;45234;48.148;17.128;2022-11-20T09:12:56;49.88;;;26.02;;
24739;SDS011;45234;48.148;17.128;2022-11-20T09:15:23;52.08;;;26.73;;
24739;SDS011;45234;48.148;17.128;2022-11-20T09:17:58;49.17;;;25.88;;
24739;SDS011;45234;48.148;17.128;2022-11-20T09:20:30;51.17;;;27.60;;
24739;SDS011;45234;48.148;17.128;2022-11-20T09:22:57;51.70;;;28.50;;
24739;SDS011;45234;48.148;17.128;2022-11-20T09:25:25;46.15;;;24.70;;
24739;SDS011;45234;48.148;17.128;2022-11-20T09:27:57;45.80;;;24.95;;
24739;SDS011;45234;48.148;17.128;2022-11-20T09:30:24;45.78;;;25.48;;
24739;SDS011;45234;48.148;17.128;2022-11-20T09:32:52;49.20;;;27.38;;
24739;SDS011;45234;48.148;17.128;2022-11-20T09:35:19;53.22;;;27.52;;
24739;SDS011;45234;48.148;17.128;2022-11-20T09:37:46;48.70;;;27.55;;
24739;SDS011;45234;48.148;17.128;2022-11-20T09:40:21;46.35;;;26.77;;
24739;SDS011;45234;48.148;17.128;2022-11-20T09:46:11;48.70;;;26.42;;
24739;SDS011;45234;48.148;17.128;2022-11-20T09:51:43;50.90;;;26.85;;
24739;SDS011;45234;48.148;17.128;2022-11-20T09:54:25;48.92;;;26.98;;
24739;SDS011;45234;48.148;17.128;2022-11-20T09:57:01;49.10;;;26.73;;
24739;SDS011;45234;48.148;17.128;2022-11-20T10:05:14;44.30;;;25.20;;
24739;SDS011;45234;48.148;17.128;2022-11-20T10:11:03;53.35;;;30.88;;
24739;SDS011;45234;48.148;17.128;2022-11-20T10:22:13;46.70;;;26.55;;
24739;SDS011;45234;48.148;17.128;2022-11-20T10:32:40;50.00;;;27.05;;
24739;SDS011;45234;48.148;17.128;2022-11-20T10:38:00;59.05;;;27.25;;
24739;SDS011;45234;48.148;17.128;2022-11-20T10:40:33;45.40;;;25.65;;
24739;SDS011;45234;48.148;17.128;2022-11-20T10:43:11;43.63;;;24.77;;
24739;SDS011;45234;48.148;17.128;2022-11-20T10:48:31;45.35;;;26.30;;
24739;SDS011;45234;48.148;17.128;2022-11-20T10:56:40;48.47;;;26.85;;
24739;SDS011;45234;48.148;17.128;2022-11-20T11:02:39;53.45;;;27.70;;
24739;SDS011;45234;48.148;17.128;2022-11-20T11:05:17;51.70;;;28.63;;
24739;SDS011;45234;48.148;17.128;2022-11-20T11:08:15;50.85;;;28.40;;
24739;SDS011;45234;48.148;17.128;2022-11-20T11:10:46;50.03;;;27.73;;
24739;SDS011;45234;48.148;17.128;2022-11-20T11:13:28;55.05;;;29.25;;
24739;SDS011;45234;48.148;17.128;2022-11-20T11:15:56;55.17;;;30.17;;
24739;SDS011;45234;48.148;17.128;2022-11-20T11:18:28;48.75;;;27.48;;
24739;SDS011;45234;48.148;17.128;2022-11-20T11:20:56;52.70;;;29.40;;
24739;SDS011;45234;48.148;17.128;2022-11-20T11:23:35;54.55;;;28.70;;
24739;SDS011;45234;48.148;17.128;2022-11-20T11:26:18;55.72;;;28.70;;
24739;SDS011;45234;48.148;17.128;2022-11-20T11:28:59;54.03;;;28.65;;
24739;SDS011;45234;48.148;17.128;2022-11-20T11:31:31;49.55;;;27.98;;
24739;SDS011;45234;48.148;17.128;2022-11-20T11:34:04;54.90;;;30.25;;
24739;SDS011;45234;48.148;17.128;2022-11-20T11:36:37;51.78;;;29.23;;
24739;SDS011;45234;48.148;17.128;2022-11-20T11:39:05;50.58;;;28.08;;
24739;SDS011;45234;48.148;17.128;2022-11-20T11:41:44;49.65;;;28.05;;
24739;SDS011;45234;48.148;17.128;2022-11-20T11:44:19;53.83;;;29.95;;
24739;SDS011;45234;48.148;17.128;2022-11-20T11:47:23;50.13;;;28.88;;
24739;SDS011;45234;48.148;17.128;2022-11-20T11:52:48;50.13;;;27.45;;
24739;SDS011;45234;48.148;17.128;2022-11-20T12:00:57;46.83;;;26.33;;
24739;SDS011;45234;48.148;17.128;2022-11-20T12:03:49;50.28;;;28.55;;
24739;SDS011;45234;48.148;17.128;2022-11-20T12:06:30;50.65;;;26.67;;
24739;SDS011;45234;48.148;17.128;2022-11-20T12:09:02;51.95;;;27.92;;
24739;SDS011;45234;48.148;17.128;2022-11-20T12:14:24;47.00;;;26.88;;
24739;SDS011;45234;48.148;17.128;2022-11-20T12:17:12;49.13;;;28.10;;
24739;SDS011;45234;48.148;17.128;2022-11-20T12:19:39;48.38;;;28.80;;
24739;SDS011;45234;48.148;17.128;2022-11-20T12:27:24;46.72;;;26.80;;
24739;SDS011;45234;48.148;17.128;2022-11-20T12:30:07;51.90;;;28.52;;
24739;SDS011;45234;48.148;17.128;2022-11-20T12:32:44;49.55;;;28.42;;
24739;SDS011;45234;48.148;17.128;2022-11-20T12:35:55;46.78;;;26.92;;
24739;SDS011;45234;48.148;17.128;2022-11-20T12:48:19;53.90;;;28.77;;
24739;SDS011;45234;48.148;17.128;2022-11-20T13:08:18;50.38;;;27.25;;
24739;SDS011;45234;48.148;17.128;2022-11-20T13:16:45;56.63;;;32.78;;
24739;SDS011;45234;48.148;17.128;2022-11-20T13:19:30;51.13;;;28.38;;
24739;SDS011;45234;48.148;17.128;2022-11-20T13:21:58;54.67;;;31.35;;
24739;SDS011;45234;48.148;17.128;2022-11-20T13:24:26;53.10;;;28.63;;
24739;SDS011;45234;48.148;17.128;2022-11-20T13:26:59;49.58;;;28.50;;
24739;SDS011;45234;48.148;17.128;2022-11-20T13:29:26;47.92;;;27.45;;
24739;SDS011;45234;48.148;17.128;2022-11-20T13:32:01;46.28;;;26.83;;
24739;SDS011;45234;48.148;17.128;2022-11-20T13:34:39;52.33;;;29.00;;
24739;SDS011;45234;48.148;17.128;2022-11-20T13:37:34;44.50;;;26.23;;
24739;SDS011;45234;48.148;17.128;2022-11-20T13:42:44;44.25;;;24.70;;
24739;SDS011;45234;48.148;17.128;2022-11-20T13:45:23;44.00;;;26.83;;
24739;SDS011;45234;48.148;17.128;2022-11-20T13:47:52;38.10;;;21.73;;
24739;SDS011;45234;48.148;17.128;2022-11-20T13:50:37;41.53;;;24.17;;
24739;SDS011;45234;48.148;17.128;2022-11-20T14:01:39;38.38;;;23.60;;
24739;SDS011;45234;48.148;17.128;2022-11-20T14:04:09;44.78;;;23.75;;
24739;SDS011;45234;48.148;17.128;2022-11-20T14:06:46;43.50;;;24.55;;
24739;SDS011;45234;48.148;17.128;2022-11-20T14:09:25;47.53;;;26.35;;
24739;SDS011;45234;48.148;17.128;2022-11-20T14:11:53;41.85;;;23.50;;
24739;SDS011;45234;48.148;17.128;2022-11-20T14:14:23;42.97;;;24.95;;
24739;SDS011;45234;48.148;17.128;2022-11-20T14:16:51;40.83;;;24.90;;
24739;SDS011;45234;48.148;17.128;2022-11-20T14:19:30;45.85;;;25.98;;
24739;SDS011;45234;48.148;17.128;2022-11-20T14:24:34;41.78;;;24.58;;
24739;SDS011;45234;48.148;17.128;2022-11-20T14:27:01;42.92;;;24.58;;
24739;SDS011;45234;48.148;17.128;2022-11-20T14:29:29;41.80;;;24.35;;
24739;SDS011;45234;48.148;17.128;2022-11-20T14:32:01;44.50;;;23.92;;
24739;SDS011;45234;48.148;17.128;2022-11-20T14:34:29;45.28;;;24.50;;
24739;SDS011;45234;48.148;17.128;2022-11-20T14:37:02;38.97;;;24.42;;
24739;SDS011;45234;48.148;17.128;2022-11-20T14:42:00;42.38;;;23.33;;
24739;SDS011;45234;48.148;17.128;2022-11-20T14:44:29;41.10;;;23.17;;
24739;SDS011;45234;48.148;17.128;2022-11-20T14:47:02;43.78;;;25.45;;
24739;SDS011;45234;48.148;17.128;2022-11-20T14:49:30;44.85;;;26.02;;
24739;SDS011;45234;48.148;17.128;2022-11-20T14:52:02;47.88;;;25.55;;
24739;SDS011;45234;48.148;17.128;2022-11-20T14:54:50;42.42;;;24.52;;
24739;SDS011;45234;48.148;17.128;2022-11-20T14:59:50;47.08;;;24.67;;
24739;SDS011;45234;48.148;17.128;2022-11-20T15:02:29;50.80;;;27.15;;
24739;SDS011;45234;48.148;17.128;2022-11-20T15:04:58;45.35;;;26.35;;
24739;SDS011;45234;48.148;17.128;2022-11-20T15:07:31;45.60;;;24.98;;
24739;SDS011;45234;48.148;17.128;2022-11-20T15:10:11;47.65;;;26.00;;
24739;SDS011;45234;48.148;17.128;2022-11-20T15:12:53;43.78;;;26.10;;
24739;SDS011;45234;48.148;17.128;2022-11-20T15:15:30;48.00;;;26.27;;
24739;SDS011;45234;48.148;17.128;2022-11-20T15:18:00;49.40;;;25.77;;
24739;SDS011;45234;48.148;17.128;2022-11-20T15:20:28;44.25;;;26.42;;
24739;SDS011;45234;48.148;17.128;2022-11-20T15:22:57;48.92;;;26.48;;
24739;SDS011;45234;48.148;17.128;2022-11-20T15:25:26;46.22;;;25.38;;
24739;SDS011;45234;48.148;17.128;2022-11-20T15:27:56;48.92;;;27.20;;
24739;SDS011;45234;48.148;17.128;2022-11-20T15:30:23;47.53;;;26.88;;
24739;SDS011;45234;48.148;17.128;2022-11-20T15:32:50;44.58;;;25.98;;
24739;SDS011;45234;48.148;17.128;2022-11-20T15:35:17;45.47;;;26.02;;
24739;SDS011;45234;48.148;17.128;2022-11-20T15:37:44;46.10;;;26.23;;
24739;SDS011;45234;48.148;17.128;2022-11-20T15:40:11;44.70;;;24.98;;
24739;SDS011;45234;48.148;17.128;2022-11-20T15:42:38;47.40;;;25.83;;
24739;SDS011;45234;48.148;17.128;2022-11-20T15:45:25;47.85;;;26.13;;
24739;SDS011;45234;48.148;17.128;2022-11-20T15:47:54;50.95;;;26.38;;
24739;SDS011;45234;48.148;17.128;2022-11-20T15:50:21;45.10;;;26.17;;
24739;SDS011;45234;48.148;17.128;2022-11-20T15:52:51;50.03;;;26.60;;
24739;SDS011;45234;48.148;17.128;2022-11-20T15:55:18;44.65;;;26.45;;
24739;SDS011;45234;48.148;17.128;2022-11-20T15:57:45;46.90;;;26.63;;
24739;SDS011;45234;48.148;17.128;2022-11-20T16:00:12;48.05;;;26.83;;
24739;SDS011;45234;48.148;17.128;2022-11-20T16:02:45;52.35;;;27.77;;
24739;SDS011;45234;48.148;17.128;2022-11-20T16:05:12;48.75;;;27.83;;
24739;SDS011;45234;48.148;17.128;2022-11-20T16:07:40;54.10;;;27.92;;
24739;SDS011;45234;48.148;17.128;2022-11-20T16:10:07;48.95;;;27.02;;
24739;SDS011;45234;48.148;17.128;2022-11-20T16:12:34;51.45;;;26.83;;
24739;SDS011;45234;48.148;17.128;2022-11-20T16:15:20;52.88;;;28.02;;
24739;SDS011;45234;48.148;17.128;2022-11-20T16:18:06;48.72;;;27.20;;
24739;SDS011;45234;48.148;17.128;2022-11-20T16:20:34;49.22;;;27.02;;
24739;SDS011;45234;48.148;17.128;2022-11-20T16:23:02;49.60;;;27.90;;
24739;SDS011;45234;48.148;17.128;2022-11-20T16:25:32;51.83;;;29.42;;
24739;SDS011;45234;48.148;17.128;2022-11-20T16:27:59;49.58;;;26.73;;